Terminal Aerodrome Forecast
Issued by NWS Boise, ID

Home | Current Version | Previous Version | Text Only | Print | Product List | Glossary On
Versions: 1 2 3 4 5 6 7 8 9 10 11 12 13 14 15
000
FTUS45 KBOI 221120
TAFBNO
TAF
KBNO 221120Z 2212/2312 25007KT P6SM BKN090
     FM221700 30010KT P6SM SCT050 BKN090
     FM230200 32006KT P6SM SCT090=

USA.gov is the U.S. government's official web portal to all federal, state and local government web resources and services.